Erie (ERI/KERI)

Map

Destinations

Information

Location
Erie, PA
Local Time
23:33 / 11:33 pm
GMT Time
03:33 / 3:33 am
Gates
4
No FAA reported delays
METAR KERI 260251Z 23004KT 10SM BKN003 OVC021 13/13 A2955 RMK AO2 RAE29 SLP007 P0000 60003 T01330128 51017
TAF KERI 260251Z 2603/2624 27006KT 6SM -RA BR OVC003 TEMPO 2604/2608 4SM -RA BR OVC006 FM260800 26006KT 3SM -DZ BR OVC006 FM261500 27012KT P6SM OVC015 FM262100 26012KT P6SM BKN035